sensor_id;sensor_type;location;lat;lon;timestamp;temperature;humidity
22526;DHT22;11429;50.842;4.386;2023-03-14T00:00:34;12.10;99.90
22526;DHT22;11429;50.842;4.386;2023-03-14T00:03:00;12.20;99.90
22526;DHT22;11429;50.842;4.386;2023-03-14T00:05:25;12.40;99.90
22526;DHT22;11429;50.842;4.386;2023-03-14T00:07:51;12.40;99.90
22526;DHT22;11429;50.842;4.386;2023-03-14T00:10:17;12.30;99.90
22526;DHT22;11429;50.842;4.386;2023-03-14T00:12:43;12.40;99.90
22526;DHT22;11429;50.842;4.386;2023-03-14T00:15:10;12.30;99.90
22526;DHT22;11429;50.842;4.386;2023-03-14T00:17:37;11.90;99.90
22526;DHT22;11429;50.842;4.386;2023-03-14T00:20:04;11.70;99.90
22526;DHT22;11429;50.842;4.386;2023-03-14T00:22:38;11.80;99.90
22526;DHT22;11429;50.842;4.386;2023-03-14T00:25:06;11.80;99.90
22526;DHT22;11429;50.842;4.386;2023-03-14T00:27:33;11.80;99.90
22526;DHT22;11429;50.842;4.386;2023-03-14T00:29:59;11.70;99.90
22526;DHT22;11429;50.842;4.386;2023-03-14T00:32:25;11.80;99.90
22526;DHT22;11429;50.842;4.386;2023-03-14T00:34:50;11.80;99.90
22526;DHT22;11429;50.842;4.386;2023-03-14T00:37:16;11.60;99.90
22526;DHT22;11429;50.842;4.386;2023-03-14T00:39:42;11.50;99.90
22526;DHT22;11429;50.842;4.386;2023-03-14T00:42:08;11.50;99.90
22526;DHT22;11429;50.842;4.386;2023-03-14T00:44:33;11.50;99.90
22526;DHT22;11429;50.842;4.386;2023-03-14T00:46:59;11.50;99.90
22526;DHT22;11429;50.842;4.386;2023-03-14T00:49:25;11.50;99.90
22526;DHT22;11429;50.842;4.386;2023-03-14T00:51:51;11.40;99.90
22526;DHT22;11429;50.842;4.386;2023-03-14T00:54:18;11.50;99.90
22526;DHT22;11429;50.842;4.386;2023-03-14T00:56:44;11.50;99.90
22526;DHT22;11429;50.842;4.386;2023-03-14T00:59:13;11.50;99.90
22526;DHT22;11429;50.842;4.386;2023-03-14T01:01:39;11.50;99.90
22526;DHT22;11429;50.842;4.386;2023-03-14T01:04:05;11.40;99.90
22526;DHT22;11429;50.842;4.386;2023-03-14T01:06:30;11.40;99.90
22526;DHT22;11429;50.842;4.386;2023-03-14T01:08:57;11.30;99.90
22526;DHT22;11429;50.842;4.386;2023-03-14T01:11:31;11.40;99.90
22526;DHT22;11429;50.842;4.386;2023-03-14T01:13:58;11.40;99.90
22526;DHT22;11429;50.842;4.386;2023-03-14T01:16:27;11.40;99.90
22526;DHT22;11429;50.842;4.386;2023-03-14T01:18:53;11.40;99.90
22526;DHT22;11429;50.842;4.386;2023-03-14T01:21:26;11.30;99.90
22526;DHT22;11429;50.842;4.386;2023-03-14T01:23:53;11.30;99.90
22526;DHT22;11429;50.842;4.386;2023-03-14T01:26:22;11.30;99.90
22526;DHT22;11429;50.842;4.386;2023-03-14T01:28:49;11.30;99.90
22526;DHT22;11429;50.842;4.386;2023-03-14T01:31:15;11.20;99.90
22526;DHT22;11429;50.842;4.386;2023-03-14T01:33:41;11.20;99.90
22526;DHT22;11429;50.842;4.386;2023-03-14T01:36:08;11.20;99.90
22526;DHT22;11429;50.842;4.386;2023-03-14T01:38:36;11.20;99.90
22526;DHT22;11429;50.842;4.386;2023-03-14T01:41:03;11.10;99.90
22526;DHT22;11429;50.842;4.386;2023-03-14T01:43:29;11.10;99.90
22526;DHT22;11429;50.842;4.386;2023-03-14T01:48:40;11.10;99.90
22526;DHT22;11429;50.842;4.386;2023-03-14T01:51:11;11.10;99.90
22526;DHT22;11429;50.842;4.386;2023-03-14T01:53:39;11.20;99.90
22526;DHT22;11429;50.842;4.386;2023-03-14T01:56:09;11.20;99.90
22526;DHT22;11429;50.842;4.386;2023-03-14T01:58:35;11.20;99.90
22526;DHT22;11429;50.842;4.386;2023-03-14T02:01:03;11.20;99.90
22526;DHT22;11429;50.842;4.386;2023-03-14T02:03:31;11.20;99.90
22526;DHT22;11429;50.842;4.386;2023-03-14T02:06:04;10.80;99.90
22526;DHT22;11429;50.842;4.386;2023-03-14T02:08:31;10.60;99.90
22526;DHT22;11429;50.842;4.386;2023-03-14T02:10:57;10.60;99.90
22526;DHT22;11429;50.842;4.386;2023-03-14T02:13:22;10.60;99.90
22526;DHT22;11429;50.842;4.386;2023-03-14T02:15:48;10.60;99.90
22526;DHT22;11429;50.842;4.386;2023-03-14T02:18:16;10.60;99.90
22526;DHT22;11429;50.842;4.386;2023-03-14T02:20:47;10.70;99.90
22526;DHT22;11429;50.842;4.386;2023-03-14T02:23:16;10.60;99.90
22526;DHT22;11429;50.842;4.386;2023-03-14T02:25:50;10.50;99.90
22526;DHT22;11429;50.842;4.386;2023-03-14T02:28:17;10.30;99.90
22526;DHT22;11429;50.842;4.386;2023-03-14T02:30:43;10.10;99.90
22526;DHT22;11429;50.842;4.386;2023-03-14T02:33:18;10.10;99.90
22526;DHT22;11429;50.842;4.386;2023-03-14T02:35:52;9.90;99.90
22526;DHT22;11429;50.842;4.386;2023-03-14T02:39:27;10.00;99.90
22526;DHT22;11429;50.842;4.386;2023-03-14T02:41:33;10.00;99.90
22526;DHT22;11429;50.842;4.386;2023-03-14T02:43:59;9.90;99.90
22526;DHT22;11429;50.842;4.386;2023-03-14T02:46:25;9.90;99.90
22526;DHT22;11429;50.842;4.386;2023-03-14T02:49:04;9.90;99.90
22526;DHT22;11429;50.842;4.386;2023-03-14T02:51:32;9.90;99.90
22526;DHT22;11429;50.842;4.386;2023-03-14T02:53:58;9.80;99.90
22526;DHT22;11429;50.842;4.386;2023-03-14T02:56:24;9.80;99.90
22526;DHT22;11429;50.842;4.386;2023-03-14T02:58:49;9.80;99.90
22526;DHT22;11429;50.842;4.386;2023-03-14T03:01:15;9.80;99.90
22526;DHT22;11429;50.842;4.386;2023-03-14T03:03:41;9.90;99.90
22526;DHT22;11429;50.842;4.386;2023-03-14T03:06:07;10.00;99.90
22526;DHT22;11429;50.842;4.386;2023-03-14T03:08:33;10.00;99.90
22526;DHT22;11429;50.842;4.386;2023-03-14T03:10:59;10.00;99.90
22526;DHT22;11429;50.842;4.386;2023-03-14T03:13:24;10.00;99.90
22526;DHT22;11429;50.842;4.386;2023-03-14T03:15:50;10.00;99.90
22526;DHT22;11429;50.842;4.386;2023-03-14T03:18:16;10.00;99.90
22526;DHT22;11429;50.842;4.386;2023-03-14T03:20:41;10.00;99.90
22526;DHT22;11429;50.842;4.386;2023-03-14T03:23:07;10.00;99.90
22526;DHT22;11429;50.842;4.386;2023-03-14T03:25:33;10.00;99.90
22526;DHT22;11429;50.842;4.386;2023-03-14T03:27:59;10.00;99.90
22526;DHT22;11429;50.842;4.386;2023-03-14T03:30:25;10.00;99.90
22526;DHT22;11429;50.842;4.386;2023-03-14T03:32:50;10.00;99.90
22526;DHT22;11429;50.842;4.386;2023-03-14T03:35:16;10.00;99.90
22526;DHT22;11429;50.842;4.386;2023-03-14T03:37:42;10.00;99.90
22526;DHT22;11429;50.842;4.386;2023-03-14T03:40:09;10.00;99.90
22526;DHT22;11429;50.842;4.386;2023-03-14T03:42:35;10.10;99.90
22526;DHT22;11429;50.842;4.386;2023-03-14T03:45:02;10.20;99.90
22526;DHT22;11429;50.842;4.386;2023-03-14T03:47:30;10.10;99.90
22526;DHT22;11429;50.842;4.386;2023-03-14T03:49:56;10.10;99.90
22526;DHT22;11429;50.842;4.386;2023-03-14T03:52:21;10.10;99.90
22526;DHT22;11429;50.842;4.386;2023-03-14T03:54:47;10.10;99.90
22526;DHT22;11429;50.842;4.386;2023-03-14T03:57:13;10.10;99.90
22526;DHT22;11429;50.842;4.386;2023-03-14T03:59:38;10.10;99.90
22526;DHT22;11429;50.842;4.386;2023-03-14T04:02:05;10.10;99.90
22526;DHT22;11429;50.842;4.386;2023-03-14T04:04:31;10.20;99.90
22526;DHT22;11429;50.842;4.386;2023-03-14T04:06:57;10.20;99.90
22526;DHT22;11429;50.842;4.386;2023-03-14T04:09:22;10.20;99.90
22526;DHT22;11429;50.842;4.386;2023-03-14T04:11:48;10.30;99.90
22526;DHT22;11429;50.842;4.386;2023-03-14T04:14:14;10.30;99.90
22526;DHT22;11429;50.842;4.386;2023-03-14T04:16:40;10.30;99.90
22526;DHT22;11429;50.842;4.386;2023-03-14T04:19:05;10.30;99.90
22526;DHT22;11429;50.842;4.386;2023-03-14T04:21:31;10.20;99.90
22526;DHT22;11429;50.842;4.386;2023-03-14T04:23:57;10.30;99.90
22526;DHT22;11429;50.842;4.386;2023-03-14T04:26:22;10.30;99.90
22526;DHT22;11429;50.842;4.386;2023-03-14T04:28:48;10.30;99.90
22526;DHT22;11429;50.842;4.386;2023-03-14T04:31:17;10.40;99.90
22526;DHT22;11429;50.842;4.386;2023-03-14T04:33:43;10.40;99.90
22526;DHT22;11429;50.842;4.386;2023-03-14T04:36:09;10.40;99.90
22526;DHT22;11429;50.842;4.386;2023-03-14T04:38:35;10.30;99.90
22526;DHT22;11429;50.842;4.386;2023-03-14T04:41:01;10.40;99.90
22526;DHT22;11429;50.842;4.386;2023-03-14T04:43:27;10.40;99.90
22526;DHT22;11429;50.842;4.386;2023-03-14T04:45:54;10.50;99.90
22526;DHT22;11429;50.842;4.386;2023-03-14T04:48:20;10.50;99.90
22526;DHT22;11429;50.842;4.386;2023-03-14T04:50:49;10.50;99.90
22526;DHT22;11429;50.842;4.386;2023-03-14T04:53:16;10.50;99.90
22526;DHT22;11429;50.842;4.386;2023-03-14T04:55:42;10.40;99.90
22526;DHT22;11429;50.842;4.386;2023-03-14T04:58:08;10.40;99.90
22526;DHT22;11429;50.842;4.386;2023-03-14T05:00:34;10.60;99.90
22526;DHT22;11429;50.842;4.386;2023-03-14T05:03:00;10.60;99.90
22526;DHT22;11429;50.842;4.386;2023-03-14T05:05:25;10.60;99.90
22526;DHT22;11429;50.842;4.386;2023-03-14T05:07:51;10.60;99.90
22526;DHT22;11429;50.842;4.386;2023-03-14T05:10:17;10.80;99.90
22526;DHT22;11429;50.842;4.386;2023-03-14T05:12:42;10.90;99.90
22526;DHT22;11429;50.842;4.386;2023-03-14T05:15:09;10.90;99.90
22526;DHT22;11429;50.842;4.386;2023-03-14T05:17:35;10.90;99.90
22526;DHT22;11429;50.842;4.386;2023-03-14T05:20:01;10.90;99.90
22526;DHT22;11429;50.842;4.386;2023-03-14T05:22:27;10.90;99.90
22526;DHT22;11429;50.842;4.386;2023-03-14T05:24:52;11.10;99.90
22526;DHT22;11429;50.842;4.386;2023-03-14T05:27:22;11.10;99.90
22526;DHT22;11429;50.842;4.386;2023-03-14T05:29:48;11.10;99.90
22526;DHT22;11429;50.842;4.386;2023-03-14T05:32:14;11.10;99.90
22526;DHT22;11429;50.842;4.386;2023-03-14T05:34:39;11.00;99.90
22526;DHT22;11429;50.842;4.386;2023-03-14T05:37:05;11.00;99.90
22526;DHT22;11429;50.842;4.386;2023-03-14T05:39:30;11.20;99.90
22526;DHT22;11429;50.842;4.386;2023-03-14T05:41:59;10.90;99.90
22526;DHT22;11429;50.842;4.386;2023-03-14T05:44:25;10.80;99.90
22526;DHT22;11429;50.842;4.386;2023-03-14T05:46:51;10.90;99.90
22526;DHT22;11429;50.842;4.386;2023-03-14T05:49:16;10.80;99.90
22526;DHT22;11429;50.842;4.386;2023-03-14T05:51:42;10.80;99.90
22526;DHT22;11429;50.842;4.386;2023-03-14T05:54:08;10.90;99.90
22526;DHT22;11429;50.842;4.386;2023-03-14T05:56:33;11.00;99.90
22526;DHT22;11429;50.842;4.386;2023-03-14T05:58:59;11.00;99.90
22526;DHT22;11429;50.842;4.386;2023-03-14T06:01:27;11.10;99.90
22526;DHT22;11429;50.842;4.386;2023-03-14T06:03:53;11.10;99.90
22526;DHT22;11429;50.842;4.386;2023-03-14T06:06:19;11.10;99.90
22526;DHT22;11429;50.842;4.386;2023-03-14T06:08:45;11.10;99.90
22526;DHT22;11429;50.842;4.386;2023-03-14T06:11:10;11.00;99.90
22526;DHT22;11429;50.842;4.386;2023-03-14T06:13:36;11.00;99.90
22526;DHT22;11429;50.842;4.386;2023-03-14T06:16:02;10.90;99.90
22526;DHT22;11429;50.842;4.386;2023-03-14T06:18:28;11.00;99.90
22526;DHT22;11429;50.842;4.386;2023-03-14T06:20:54;11.00;99.90
22526;DHT22;11429;50.842;4.386;2023-03-14T06:23:21;10.90;99.90
22526;DHT22;11429;50.842;4.386;2023-03-14T06:25:46;10.90;99.90
22526;DHT22;11429;50.842;4.386;2023-03-14T06:28:12;10.90;99.90
22526;DHT22;11429;50.842;4.386;2023-03-14T06:30:38;11.00;99.90
22526;DHT22;11429;50.842;4.386;2023-03-14T06:33:07;11.20;99.90
22526;DHT22;11429;50.842;4.386;2023-03-14T06:35:33;11.20;99.90
22526;DHT22;11429;50.842;4.386;2023-03-14T06:38:01;11.30;99.90
22526;DHT22;11429;50.842;4.386;2023-03-14T06:40:27;11.00;99.90
22526;DHT22;11429;50.842;4.386;2023-03-14T06:42:53;10.90;99.90
22526;DHT22;11429;50.842;4.386;2023-03-14T06:45:18;10.90;99.90
22526;DHT22;11429;50.842;4.386;2023-03-14T06:47:48;10.80;99.90
22526;DHT22;11429;50.842;4.386;2023-03-14T06:50:14;10.90;99.90
22526;DHT22;11429;50.842;4.386;2023-03-14T06:52:40;10.90;99.90
22526;DHT22;11429;50.842;4.386;2023-03-14T06:55:16;10.60;99.90
22526;DHT22;11429;50.842;4.386;2023-03-14T06:57:42;10.30;99.90
22526;DHT22;11429;50.842;4.386;2023-03-14T07:00:10;10.00;99.90
22526;DHT22;11429;50.842;4.386;2023-03-14T07:02:37;9.70;99.90
22526;DHT22;11429;50.842;4.386;2023-03-14T07:05:04;9.60;99.90
22526;DHT22;11429;50.842;4.386;2023-03-14T07:07:30;9.50;99.90
22526;DHT22;11429;50.842;4.386;2023-03-14T07:09:55;9.40;99.90
22526;DHT22;11429;50.842;4.386;2023-03-14T07:12:21;9.50;99.90
22526;DHT22;11429;50.842;4.386;2023-03-14T07:14:48;9.50;99.90
22526;DHT22;11429;50.842;4.386;2023-03-14T07:17:14;9.30;99.90
22526;DHT22;11429;50.842;4.386;2023-03-14T07:19:40;9.20;99.90
22526;DHT22;11429;50.842;4.386;2023-03-14T07:22:06;9.10;99.90
22526;DHT22;11429;50.842;4.386;2023-03-14T07:24:41;8.90;99.90
22526;DHT22;11429;50.842;4.386;2023-03-14T07:27:07;8.90;99.90
22526;DHT22;11429;50.842;4.386;2023-03-14T07:29:32;8.90;99.90
22526;DHT22;11429;50.842;4.386;2023-03-14T07:31:58;8.90;99.90
22526;DHT22;11429;50.842;4.386;2023-03-14T07:34:23;8.90;99.90
22526;DHT22;11429;50.842;4.386;2023-03-14T07:36:54;8.80;99.90
22526;DHT22;11429;50.842;4.386;2023-03-14T07:39:20;8.90;99.90
22526;DHT22;11429;50.842;4.386;2023-03-14T07:41:46;8.90;99.90
22526;DHT22;11429;50.842;4.386;2023-03-14T07:44:11;8.80;99.90
22526;DHT22;11429;50.842;4.386;2023-03-14T07:46:37;8.80;99.90
22526;DHT22;11429;50.842;4.386;2023-03-14T07:49:03;8.80;99.90
22526;DHT22;11429;50.842;4.386;2023-03-14T07:51:28;8.90;99.90
22526;DHT22;11429;50.842;4.386;2023-03-14T07:53:54;9.10;99.90
22526;DHT22;11429;50.842;4.386;2023-03-14T07:56:20;9.00;99.90
22526;DHT22;11429;50.842;4.386;2023-03-14T07:58:47;9.00;99.90
22526;DHT22;11429;50.842;4.386;2023-03-14T08:01:14;9.10;99.90
22526;DHT22;11429;50.842;4.386;2023-03-14T08:03:40;9.10;99.90
22526;DHT22;11429;50.842;4.386;2023-03-14T08:06:06;9.10;99.90
22526;DHT22;11429;50.842;4.386;2023-03-14T08:08:32;9.10;99.90
22526;DHT22;11429;50.842;4.386;2023-03-14T08:11:03;9.20;99.90
22526;DHT22;11429;50.842;4.386;2023-03-14T08:13:29;9.00;99.90
22526;DHT22;11429;50.842;4.386;2023-03-14T08:15:55;9.10;99.90
22526;DHT22;11429;50.842;4.386;2023-03-14T08:18:48;9.20;99.90
22526;DHT22;11429;50.842;4.386;2023-03-14T08:21:13;9.10;99.90
22526;DHT22;11429;50.842;4.386;2023-03-14T08:23:39;9.10;99.90
22526;DHT22;11429;50.842;4.386;2023-03-14T08:29:15;9.10;99.90
22526;DHT22;11429;50.842;4.386;2023-03-14T08:31:40;9.00;99.90
22526;DHT22;11429;50.842;4.386;2023-03-14T08:34:15;8.80;99.90
22526;DHT22;11429;50.842;4.386;2023-03-14T08:36:41;8.80;99.90
22526;DHT22;11429;50.842;4.386;2023-03-14T08:39:07;8.70;99.90
22526;DHT22;11429;50.842;4.386;2023-03-14T08:41:33;8.70;99.90
22526;DHT22;11429;50.842;4.386;2023-03-14T08:44:06;8.70;99.90
22526;DHT22;11429;50.842;4.386;2023-03-14T08:46:43;8.70;99.90
22526;DHT22;11429;50.842;4.386;2023-03-14T08:49:08;8.60;99.90
22526;DHT22;11429;50.842;4.386;2023-03-14T08:51:34;8.40;99.90
22526;DHT22;11429;50.842;4.386;2023-03-14T08:54:00;8.50;99.90
22526;DHT22;11429;50.842;4.386;2023-03-14T08:56:26;8.50;99.90
22526;DHT22;11429;50.842;4.386;2023-03-14T08:58:51;8.40;99.90
22526;DHT22;11429;50.842;4.386;2023-03-14T09:01:17;8.30;99.90
22526;DHT22;11429;50.842;4.386;2023-03-14T09:03:44;8.20;99.90
22526;DHT22;11429;50.842;4.386;2023-03-14T09:06:11;8.30;99.90
22526;DHT22;11429;50.842;4.386;2023-03-14T09:08:36;8.30;99.90
22526;DHT22;11429;50.842;4.386;2023-03-14T09:11:02;8.30;99.90
22526;DHT22;11429;50.842;4.386;2023-03-14T09:13:28;8.20;99.90
22526;DHT22;11429;50.842;4.386;2023-03-14T09:15:55;8.40;99.90
22526;DHT22;11429;50.842;4.386;2023-03-14T09:18:22;8.30;99.90
22526;DHT22;11429;50.842;4.386;2023-03-14T09:20:48;8.60;99.90
22526;DHT22;11429;50.842;4.386;2023-03-14T09:23:14;8.70;99.90
22526;DHT22;11429;50.842;4.386;2023-03-14T09:25:40;8.50;99.90
22526;DHT22;11429;50.842;4.386;2023-03-14T09:28:06;8.30;99.90
22526;DHT22;11429;50.842;4.386;2023-03-14T09:30:32;8.20;99.90
22526;DHT22;11429;50.842;4.386;2023-03-14T09:32:58;8.40;99.90
22526;DHT22;11429;50.842;4.386;2023-03-14T09:35:24;8.40;99.90
22526;DHT22;11429;50.842;4.386;2023-03-14T09:37:50;8.40;99.90
22526;DHT22;11429;50.842;4.386;2023-03-14T09:40:18;8.30;99.90
22526;DHT22;11429;50.842;4.386;2023-03-14T09:42:48;8.30;99.90
22526;DHT22;11429;50.842;4.386;2023-03-14T09:45:37;8.30;99.90
22526;DHT22;11429;50.842;4.386;2023-03-14T09:48:49;8.30;99.90
22526;DHT22;11429;50.842;4.386;2023-03-14T09:51:38;8.40;99.90
22526;DHT22;11429;50.842;4.386;2023-03-14T09:54:05;8.50;99.90
22526;DHT22;11429;50.842;4.386;2023-03-14T09:56:34;8.50;99.90
22526;DHT22;11429;50.842;4.386;2023-03-14T09:59:03;8.40;99.90
22526;DHT22;11429;50.842;4.386;2023-03-14T10:01:32;8.40;99.90
22526;DHT22;11429;50.842;4.386;2023-03-14T10:04:06;8.30;99.90
22526;DHT22;11429;50.842;4.386;2023-03-14T10:06:32;8.30;99.90
22526;DHT22;11429;50.842;4.386;2023-03-14T10:09:01;8.60;99.90
22526;DHT22;11429;50.842;4.386;2023-03-14T10:15:10;8.70;99.90
22526;DHT22;11429;50.842;4.386;2023-03-14T10:17:44;8.80;99.90
22526;DHT22;11429;50.842;4.386;2023-03-14T10:20:35;8.80;99.90
22526;DHT22;11429;50.842;4.386;2023-03-14T10:25:45;8.90;99.90
22526;DHT22;11429;50.842;4.386;2023-03-14T10:28:43;8.70;99.90
22526;DHT22;11429;50.842;4.386;2023-03-14T10:31:10;8.70;99.90
22526;DHT22;11429;50.842;4.386;2023-03-14T10:33:38;8.50;99.90
22526;DHT22;11429;50.842;4.386;2023-03-14T10:36:15;8.60;99.90
22526;DHT22;11429;50.842;4.386;2023-03-14T10:38:42;8.50;99.90
22526;DHT22;11429;50.842;4.386;2023-03-14T10:41:25;8.30;99.90
22526;DHT22;11429;50.842;4.386;2023-03-14T10:43:53;8.20;99.90
22526;DHT22;11429;50.842;4.386;2023-03-14T10:46:24;8.10;99.90
22526;DHT22;11429;50.842;4.386;2023-03-14T10:48:52;8.20;99.90
22526;DHT22;11429;50.842;4.386;2023-03-14T10:51:19;8.30;99.90
22526;DHT22;11429;50.842;4.386;2023-03-14T10:54:09;8.30;99.90
22526;DHT22;11429;50.842;4.386;2023-03-14T10:56:37;8.40;99.90
22526;DHT22;11429;50.842;4.386;2023-03-14T10:59:07;8.30;99.90
22526;DHT22;11429;50.842;4.386;2023-03-14T11:07:22;8.30;99.90
22526;DHT22;11429;50.842;4.386;2023-03-14T11:10:29;8.10;99.90
22526;DHT22;11429;50.842;4.386;2023-03-14T11:19:09;8.20;99.90
22526;DHT22;11429;50.842;4.386;2023-03-14T11:22:03;8.10;99.90
22526;DHT22;11429;50.842;4.386;2023-03-14T11:27:24;7.80;99.90
22526;DHT22;11429;50.842;4.386;2023-03-14T11:38:22;7.60;99.90
22526;DHT22;11429;50.842;4.386;2023-03-14T11:40:44;7.60;99.90
22526;DHT22;11429;50.842;4.386;2023-03-14T11:43:17;7.40;99.90
22526;DHT22;11429;50.842;4.386;2023-03-14T11:45:47;7.50;99.90
22526;DHT22;11429;50.842;4.386;2023-03-14T11:48:25;7.50;99.90
22526;DHT22;11429;50.842;4.386;2023-03-14T11:50:56;7.50;99.90
22526;DHT22;11429;50.842;4.386;2023-03-14T11:56:32;7.50;99.90
22526;DHT22;11429;50.842;4.386;2023-03-14T11:59:07;7.40;99.90
22526;DHT22;11429;50.842;4.386;2023-03-14T12:02:05;7.30;99.90
22526;DHT22;11429;50.842;4.386;2023-03-14T12:04:42;7.30;99.90
22526;DHT22;11429;50.842;4.386;2023-03-14T12:07:29;7.10;99.90
22526;DHT22;11429;50.842;4.386;2023-03-14T12:09:55;7.20;99.90
22526;DHT22;11429;50.842;4.386;2023-03-14T12:12:27;7.20;99.90
22526;DHT22;11429;50.842;4.386;2023-03-14T12:14:55;7.20;99.90
22526;DHT22;11429;50.842;4.386;2023-03-14T12:17:37;7.20;99.90
22526;DHT22;11429;50.842;4.386;2023-03-14T12:20:22;7.30;99.90
22526;DHT22;11429;50.842;4.386;2023-03-14T12:22:56;7.80;99.90
22526;DHT22;11429;50.842;4.386;2023-03-14T12:25:32;7.90;99.90
22526;DHT22;11429;50.842;4.386;2023-03-14T12:30:40;7.50;99.90
22526;DHT22;11429;50.842;4.386;2023-03-14T12:35:39;7.60;99.90
22526;DHT22;11429;50.842;4.386;2023-03-14T12:43:32;7.50;99.90
22526;DHT22;11429;50.842;4.386;2023-03-14T12:51:41;7.20;99.90
22526;DHT22;11429;50.842;4.386;2023-03-14T12:57:11;7.30;99.90
22526;DHT22;11429;50.842;4.386;2023-03-14T12:59:56;7.30;99.90
22526;DHT22;11429;50.842;4.386;2023-03-14T13:04:51;7.40;99.90
22526;DHT22;11429;50.842;4.386;2023-03-14T13:10:27;7.20;99.90
22526;DHT22;11429;50.842;4.386;2023-03-14T13:15:45;7.60;99.90
22526;DHT22;11429;50.842;4.386;2023-03-14T13:18:40;7.40;99.90
22526;DHT22;11429;50.842;4.386;2023-03-14T13:21:24;7.40;99.90
22526;DHT22;11429;50.842;4.386;2023-03-14T13:24:05;7.50;99.90
22526;DHT22;11429;50.842;4.386;2023-03-14T13:26:49;7.40;99.90
22526;DHT22;11429;50.842;4.386;2023-03-14T13:29:32;7.30;99.90
22526;DHT22;11429;50.842;4.386;2023-03-14T13:32:00;7.40;99.90
22526;DHT22;11429;50.842;4.386;2023-03-14T13:34:32;7.70;99.90
22526;DHT22;11429;50.842;4.386;2023-03-14T13:36:58;7.70;99.90
22526;DHT22;11429;50.842;4.386;2023-03-14T13:39:26;7.60;99.90
22526;DHT22;11429;50.842;4.386;2023-03-14T13:41:57;7.20;99.90
22526;DHT22;11429;50.842;4.386;2023-03-14T13:44:27;7.30;99.90
22526;DHT22;11429;50.842;4.386;2023-03-14T13:46:59;7.30;99.90
22526;DHT22;11429;50.842;4.386;2023-03-14T13:49:26;7.30;99.90
22526;DHT22;11429;50.842;4.386;2023-03-14T13:51:54;7.30;99.90
22526;DHT22;11429;50.842;4.386;2023-03-14T13:54:21;7.20;99.90
22526;DHT22;11429;50.842;4.386;2023-03-14T13:56:48;7.30;99.90
22526;DHT22;11429;50.842;4.386;2023-03-14T13:59:25;7.50;99.90
22526;DHT22;11429;50.842;4.386;2023-03-14T14:01:55;7.50;99.90
22526;DHT22;11429;50.842;4.386;2023-03-14T14:04:24;7.80;99.90
22526;DHT22;11429;50.842;4.386;2023-03-14T14:06:57;7.60;99.90
22526;DHT22;11429;50.842;4.386;2023-03-14T14:09:35;7.60;99.90
22526;DHT22;11429;50.842;4.386;2023-03-14T14:12:06;7.80;99.90
22526;DHT22;11429;50.842;4.386;2023-03-14T14:14:41;7.80;99.90
22526;DHT22;11429;50.842;4.386;2023-03-14T14:17:15;7.80;99.90
22526;DHT22;11429;50.842;4.386;2023-03-14T14:19:44;7.80;99.90
22526;DHT22;11429;50.842;4.386;2023-03-14T14:22:10;8.00;99.90
22526;DHT22;11429;50.842;4.386;2023-03-14T14:24:37;7.90;99.90
22526;DHT22;11429;50.842;4.386;2023-03-14T14:27:27;7.90;99.90
22526;DHT22;11429;50.842;4.386;2023-03-14T14:30:04;8.00;99.90
22526;DHT22;11429;50.842;4.386;2023-03-14T14:32:38;8.00;99.90
22526;DHT22;11429;50.842;4.386;2023-03-14T14:35:07;8.10;99.90
22526;DHT22;11429;50.842;4.386;2023-03-14T14:37:41;8.00;99.90
22526;DHT22;11429;50.842;4.386;2023-03-14T14:40:13;7.90;99.90
22526;DHT22;11429;50.842;4.386;2023-03-14T14:42:41;8.00;99.90
22526;DHT22;11429;50.842;4.386;2023-03-14T14:45:14;7.90;99.90
22526;DHT22;11429;50.842;4.386;2023-03-14T14:47:53;7.80;99.90
22526;DHT22;11429;50.842;4.386;2023-03-14T14:50:39;7.70;99.90
22526;DHT22;11429;50.842;4.386;2023-03-14T14:53:40;7.70;99.90
22526;DHT22;11429;50.842;4.386;2023-03-14T14:56:18;7.50;99.90
22526;DHT22;11429;50.842;4.386;2023-03-14T14:58:48;7.20;99.90
22526;DHT22;11429;50.842;4.386;2023-03-14T15:01:15;7.00;99.90
22526;DHT22;11429;50.842;4.386;2023-03-14T15:03:43;6.80;99.90
22526;DHT22;11429;50.842;4.386;2023-03-14T15:06:12;6.60;99.90
22526;DHT22;11429;50.842;4.386;2023-03-14T15:08:38;6.50;99.90
22526;DHT22;11429;50.842;4.386;2023-03-14T15:11:04;6.50;99.90
22526;DHT22;11429;50.842;4.386;2023-03-14T15:13:30;6.60;99.90
22526;DHT22;11429;50.842;4.386;2023-03-14T15:15:56;7.20;99.90
22526;DHT22;11429;50.842;4.386;2023-03-14T15:18:24;7.60;99.90
22526;DHT22;11429;50.842;4.386;2023-03-14T15:20:50;7.50;99.90
22526;DHT22;11429;50.842;4.386;2023-03-14T15:23:19;7.20;99.90
22526;DHT22;11429;50.842;4.386;2023-03-14T15:25:45;6.90;99.90
22526;DHT22;11429;50.842;4.386;2023-03-14T15:28:26;7.00;99.90
22526;DHT22;11429;50.842;4.386;2023-03-14T15:30:57;7.00;99.90
22526;DHT22;11429;50.842;4.386;2023-03-14T15:33:25;7.10;99.90
22526;DHT22;11429;50.842;4.386;2023-03-14T15:35:51;7.40;99.90
22526;DHT22;11429;50.842;4.386;2023-03-14T15:38:19;7.30;99.90
22526;DHT22;11429;50.842;4.386;2023-03-14T15:40:46;7.30;99.90
22526;DHT22;11429;50.842;4.386;2023-03-14T15:43:12;7.20;99.90
22526;DHT22;11429;50.842;4.386;2023-03-14T15:45:38;7.40;99.90
22526;DHT22;11429;50.842;4.386;2023-03-14T15:48:05;7.30;99.90
22526;DHT22;11429;50.842;4.386;2023-03-14T15:50:31;7.30;99.90
22526;DHT22;11429;50.842;4.386;2023-03-14T15:52:57;7.60;99.90
22526;DHT22;11429;50.842;4.386;2023-03-14T15:55:23;7.70;99.90
22526;DHT22;11429;50.842;4.386;2023-03-14T15:57:50;7.60;99.90
22526;DHT22;11429;50.842;4.386;2023-03-14T16:00:19;7.60;99.90
22526;DHT22;11429;50.842;4.386;2023-03-14T16:02:47;7.50;99.90
22526;DHT22;11429;50.842;4.386;2023-03-14T16:05:14;7.50;99.90
22526;DHT22;11429;50.842;4.386;2023-03-14T16:07:40;7.50;99.90
22526;DHT22;11429;50.842;4.386;2023-03-14T16:10:08;7.50;99.90
22526;DHT22;11429;50.842;4.386;2023-03-14T16:12:35;7.40;99.90
22526;DHT22;11429;50.842;4.386;2023-03-14T16:15:03;7.30;99.90
22526;DHT22;11429;50.842;4.386;2023-03-14T16:17:30;7.20;99.90
22526;DHT22;11429;50.842;4.386;2023-03-14T16:19:57;7.30;99.90
22526;DHT22;11429;50.842;4.386;2023-03-14T16:22:23;7.40;99.90
22526;DHT22;11429;50.842;4.386;2023-03-14T16:24:50;7.40;99.90
22526;DHT22;11429;50.842;4.386;2023-03-14T16:27:17;7.40;99.90
22526;DHT22;11429;50.842;4.386;2023-03-14T16:29:44;7.50;99.90
22526;DHT22;11429;50.842;4.386;2023-03-14T16:32:14;7.50;99.90
22526;DHT22;11429;50.842;4.386;2023-03-14T16:34:41;7.30;99.90
22526;DHT22;11429;50.842;4.386;2023-03-14T16:37:07;7.50;99.90
22526;DHT22;11429;50.842;4.386;2023-03-14T16:39:33;7.50;99.90
22526;DHT22;11429;50.842;4.386;2023-03-14T16:42:18;7.50;99.90
22526;DHT22;11429;50.842;4.386;2023-03-14T16:45:06;7.50;99.90
22526;DHT22;11429;50.842;4.386;2023-03-14T16:47:32;7.20;99.90
22526;DHT22;11429;50.842;4.386;2023-03-14T16:50:02;7.20;99.90
22526;DHT22;11429;50.842;4.386;2023-03-14T16:52:31;7.20;99.90
22526;DHT22;11429;50.842;4.386;2023-03-14T16:55:23;7.20;99.90
22526;DHT22;11429;50.842;4.386;2023-03-14T16:57:54;7.20;99.90